Columbus, Ohio
Current Conditions -  °F | °C
As of 3:30 AM on Monday 26 Jan 2015 (Local Time) from KCMH Reporting Station
Light Snow Light Snow  
Wind Chill:   Ceiling: 2000
Heat Index: 21°   Visibility: 0.75mi
Dew Point: 19°   Wind: 13mph
Humidity: 93%   Direction: 20°NNE
Pressure: 29.74"   Gusts: NA
Location:  39.96°N, 83°W
Report Text: KCMH 260830Z 02011KT 3/4SM R28L/6000VP6000FT -SN BR SCT011 OVC020 M06/M07 A2974 RMK AO2 TWR VIS 3 P0002
Loading
Personal Weather Stations






























Interactive Weather Map New forecast layout! Learn more

10-Day Weather Forecast

Advertisements
Track Severe Weather on mobile